createdAt,value
2022-11-18T00:01:29.490Z,37.07
2022-11-18T00:03:57.786Z,32.77
2022-11-18T00:06:27.738Z,37.37
2022-11-18T00:08:56.592Z,34.30
2022-11-18T00:11:44.839Z,33.67
2022-11-18T00:14:23.512Z,30.47
2022-11-18T00:16:54.954Z,30.30
2022-11-18T00:19:24.838Z,37.47
2022-11-18T00:21:53.475Z,37.87
2022-11-18T00:24:22.182Z,34.40
2022-11-18T00:26:50.688Z,36.37
2022-11-18T00:29:21.996Z,46.83
2022-11-18T00:31:50.886Z,32.03
2022-11-18T00:34:19.600Z,36.53
2022-11-18T00:36:48.716Z,33.23
2022-11-18T00:39:18.596Z,32.00
2022-11-18T00:42:05.952Z,32.70
2022-11-18T00:44:35.681Z,51.33
2022-11-18T00:47:04.124Z,35.27
2022-11-18T00:49:32.272Z,33.40
2022-11-18T00:52:01.200Z,38.57
2022-11-18T00:54:29.456Z,37.90
2022-11-18T00:56:57.733Z,39.97
2022-11-18T00:59:25.944Z,42.07
2022-11-18T01:01:55.774Z,39.77
2022-11-18T01:04:24.511Z,35.30
2022-11-18T01:06:53.106Z,38.93
2022-11-18T01:09:21.478Z,37.80
2022-11-18T01:12:07.396Z,36.83
2022-11-18T01:14:35.407Z,42.13
2022-11-18T01:17:05.022Z,34.43
2022-11-18T01:19:33.129Z,40.07
2022-11-18T01:22:03.374Z,42.67
2022-11-18T01:24:31.936Z,37.63
2022-11-18T01:27:00.348Z,37.90
2022-11-18T01:29:28.382Z,34.67
2022-11-18T01:32:25.868Z,32.37
2022-11-18T01:34:46.616Z,43.20
2022-11-18T01:37:15.049Z,33.70
2022-11-18T01:39:43.200Z,39.17
2022-11-18T01:42:16.084Z,46.03
2022-11-18T01:45:09.886Z,39.87
2022-11-18T01:47:43.362Z,37.33
2022-11-18T01:50:16.311Z,32.97
2022-11-18T01:52:48.880Z,37.20
2022-11-18T01:55:24.992Z,31.27
2022-11-18T01:57:58.147Z,35.53
2022-11-18T02:00:26.280Z,27.53
2022-11-18T02:02:55.271Z,27.40
2022-11-18T02:05:26.100Z,32.83
2022-11-18T02:07:54.824Z,27.10
2022-11-18T02:10:26.012Z,33.87
2022-11-18T02:12:56.974Z,31.37
2022-11-18T02:15:34.234Z,28.40
2022-11-18T02:18:11.658Z,26.60
2022-11-18T02:20:44.949Z,34.47
2022-11-18T02:23:58.322Z,30.83
2022-11-18T02:26:55.899Z,31.83
2022-11-18T02:29:29.925Z,35.27
2022-11-18T02:32:02.456Z,35.53
2022-11-18T02:34:41.754Z,29.10
2022-11-18T02:37:17.913Z,33.80
2022-11-18T02:39:49.896Z,34.07
2022-11-18T02:42:18.832Z,36.33
2022-11-18T02:44:52.040Z,35.73
2022-11-18T02:47:22.024Z,39.47
2022-11-18T02:49:54.177Z,35.70
2022-11-18T02:52:23.571Z,35.80
2022-11-18T02:54:53.650Z,40.63
2022-11-18T02:57:23.159Z,33.50
2022-11-18T02:59:52.782Z,48.43
2022-11-18T03:02:24.898Z,39.17
2022-11-18T03:04:57.431Z,33.37
2022-11-18T03:07:31.569Z,38.00
2022-11-18T03:10:01.451Z,33.80
2022-11-18T03:12:37.835Z,37.27
2022-11-18T03:15:17.228Z,42.43
2022-11-18T03:17:51.769Z,34.90
2022-11-18T03:20:25.680Z,45.27
2022-11-18T03:22:57.031Z,45.90
2022-11-18T03:25:32.706Z,38.97
2022-11-18T03:28:07.188Z,37.53
2022-11-18T03:30:40.683Z,44.40
2022-11-18T03:33:13.081Z,35.87
2022-11-18T03:35:45.987Z,38.73
2022-11-18T03:38:17.877Z,41.57
2022-11-18T03:40:56.052Z,45.63
2022-11-18T03:43:27.526Z,50.50
2022-11-18T03:46:03.476Z,44.87
2022-11-18T03:48:35.640Z,44.43
2022-11-18T03:51:08.232Z,41.53
2022-11-18T03:53:41.485Z,44.10
2022-11-18T03:56:17.317Z,38.80
2022-11-18T03:58:52.167Z,37.80
2022-11-18T04:01:28.591Z,39.97
2022-11-18T04:03:56.744Z,34.40
2022-11-18T04:06:31.170Z,46.63
2022-11-18T04:09:07.842Z,41.63
2022-11-18T04:12:00.825Z,39.07
2022-11-18T04:14:29.479Z,42.27
2022-11-18T04:16:59.469Z,49.53
2022-11-18T04:19:27.474Z,42.90
2022-11-18T04:21:55.805Z,40.13
2022-11-18T04:24:23.797Z,40.03
2022-11-18T04:26:52.227Z,45.53
2022-11-18T04:29:20.497Z,38.87
2022-11-18T04:31:49.125Z,34.83
2022-11-18T04:34:18.771Z,43.10
2022-11-18T04:36:47.193Z,33.43
2022-11-18T04:39:15.731Z,34.50
2022-11-18T04:41:56.706Z,46.00
2022-11-18T04:44:26.081Z,28.50
2022-11-18T04:46:55.920Z,35.63
2022-11-18T04:49:26.568Z,35.93
2022-11-18T04:51:55.752Z,40.60
2022-11-18T04:54:24.975Z,38.20
2022-11-18T04:56:53.736Z,41.20
2022-11-18T04:59:24.324Z,36.20
2022-11-18T05:01:53.555Z,37.27
2022-11-18T05:04:23.572Z,37.00
2022-11-18T05:06:54.253Z,33.37
2022-11-18T05:09:24.872Z,30.93
2022-11-18T05:12:13.435Z,34.67
2022-11-18T05:14:46.591Z,36.33
2022-11-18T05:17:17.968Z,32.27
2022-11-18T05:19:45.962Z,33.20
2022-11-18T05:22:16.371Z,33.97
2022-11-18T05:24:44.464Z,27.00
2022-11-18T05:27:13.091Z,38.13
2022-11-18T05:29:41.242Z,34.57
2022-11-18T05:32:09.916Z,35.37
2022-11-18T05:34:38.069Z,37.83
2022-11-18T05:37:06.719Z,32.47
2022-11-18T05:39:36.243Z,32.30
2022-11-18T05:42:22.397Z,33.47
2022-11-18T05:44:57.504Z,41.50
2022-11-18T05:47:26.485Z,35.37
2022-11-18T05:49:54.521Z,36.07
2022-11-18T05:52:23.019Z,48.77
2022-11-18T05:54:52.575Z,32.47
2022-11-18T05:57:20.991Z,33.27
2022-11-18T05:59:49.055Z,33.90
2022-11-18T06:02:20.871Z,26.67
2022-11-18T06:04:51.676Z,40.40
2022-11-18T06:07:23.470Z,27.40
2022-11-18T06:09:59.779Z,43.63
2022-11-18T06:12:36.189Z,36.67
2022-11-18T06:15:10.064Z,35.57
2022-11-18T06:17:44.188Z,34.37
2022-11-18T06:20:12.961Z,39.00
2022-11-18T06:22:46.270Z,36.20
2022-11-18T06:25:16.427Z,35.27
2022-11-18T06:27:45.975Z,43.37
2022-11-18T06:30:15.126Z,40.20
2022-11-18T06:32:43.566Z,41.40
2022-11-18T06:35:11.870Z,34.97
2022-11-18T06:37:40.391Z,39.27
2022-11-18T06:40:09.777Z,36.03
2022-11-18T06:42:56.821Z,46.27
2022-11-18T06:45:24.923Z,41.57
2022-11-18T06:47:57.001Z,33.80
2022-11-18T06:50:25.303Z,33.97
2022-11-18T06:52:54.306Z,28.10
2022-11-18T06:55:22.402Z,30.40
2022-11-18T06:57:52.032Z,28.13
2022-11-18T07:00:20.535Z,28.73
2022-11-18T07:02:48.799Z,29.17
2022-11-18T07:05:16.991Z,21.63
2022-11-18T07:07:45.377Z,24.03
2022-11-18T07:10:13.506Z,33.20
2022-11-18T07:12:41.831Z,27.97
2022-11-18T07:15:12.018Z,21.83
2022-11-18T07:17:40.405Z,30.83
2022-11-18T07:20:09.621Z,27.97
2022-11-18T07:22:38.000Z,22.73
2022-11-18T07:25:06.803Z,30.33
2022-11-18T07:27:35.074Z,25.80
2022-11-18T07:30:03.321Z,39.30
2022-11-18T07:32:33.911Z,28.77
2022-11-18T07:35:01.895Z,27.50
2022-11-18T07:37:30.192Z,28.60
2022-11-18T07:39:59.783Z,30.80
2022-11-18T07:42:28.137Z,24.00
2022-11-18T07:44:56.150Z,26.03
2022-11-18T07:47:24.585Z,25.10
2022-11-18T07:49:53.923Z,17.33
2022-11-18T07:52:22.397Z,27.57
2022-11-18T07:54:50.638Z,19.53
2022-11-18T07:57:18.940Z,29.10
2022-11-18T07:59:46.986Z,47.33
2022-11-18T08:02:15.385Z,21.50
2022-11-18T08:04:43.641Z,17.40
2022-11-18T08:07:14.106Z,19.20
2022-11-18T08:09:42.319Z,26.27
2022-11-18T08:12:10.733Z,26.23
2022-11-18T08:14:38.799Z,22.67
2022-11-18T08:17:07.125Z,24.60
2022-11-18T08:19:35.943Z,23.83
2022-11-18T08:22:04.256Z,27.53
2022-11-18T08:24:33.587Z,29.07
2022-11-18T08:27:02.076Z,27.03
2022-11-18T08:29:30.457Z,20.93
2022-11-18T08:31:59.240Z,11.80
2022-11-18T08:34:27.345Z,10.10
2022-11-18T08:36:56.232Z,19.33
2022-11-18T08:39:24.447Z,12.63
2022-11-18T08:41:54.099Z,9.63
2022-11-18T08:44:22.112Z,10.03
2022-11-18T08:46:50.668Z,8.70
2022-11-18T08:49:18.880Z,12.40
2022-11-18T08:51:47.323Z,13.30
2022-11-18T08:54:15.360Z,9.70
2022-11-18T08:56:43.756Z,13.43
2022-11-18T08:59:13.533Z,11.50
2022-11-18T09:01:43.649Z,10.30
2022-11-18T09:04:12.432Z,12.30
2022-11-18T09:06:40.774Z,20.33
2022-11-18T09:09:09.285Z,12.20
2022-11-18T09:11:40.092Z,13.93
2022-11-18T09:16:58.120Z,13.70
2022-11-18T09:22:14.835Z,9.40
2022-11-18T09:24:43.615Z,21.17
2022-11-18T09:27:16.694Z,7.60
2022-11-18T09:29:46.405Z,18.03
2022-11-18T09:32:16.217Z,29.40
2022-11-18T09:34:44.787Z,21.57
2022-11-18T09:37:12.819Z,13.03
2022-11-18T09:39:41.146Z,16.97
2022-11-18T09:42:27.882Z,13.07
2022-11-18T09:45:14.567Z,9.23
2022-11-18T09:47:45.530Z,13.27
2022-11-18T09:50:42.204Z,19.73
2022-11-18T09:53:12.616Z,14.57
2022-11-18T09:55:41.990Z,15.77
2022-11-18T09:58:19.287Z,13.60
2022-11-18T10:00:47.733Z,15.97
2022-11-18T10:03:27.083Z,23.37
2022-11-18T10:05:59.975Z,12.97
2022-11-18T10:08:32.738Z,22.33
2022-11-18T10:11:07.829Z,17.80
2022-11-18T10:13:49.905Z,19.07
2022-11-18T10:16:29.886Z,11.17
2022-11-18T10:19:06.417Z,14.63
2022-11-18T10:21:48.098Z,17.60
2022-11-18T10:24:20.757Z,21.80
2022-11-18T10:26:54.999Z,17.97
2022-11-18T10:29:23.847Z,25.63
2022-11-18T10:31:59.586Z,25.50
2022-11-18T10:34:30.663Z,29.73
2022-11-18T10:37:03.426Z,20.17
2022-11-18T10:39:31.983Z,28.20
2022-11-18T10:42:04.028Z,25.07
2022-11-18T10:44:37.785Z,33.07
2022-11-18T10:47:33.923Z,40.70
2022-11-18T10:50:28.806Z,16.27
2022-11-18T10:52:57.423Z,34.93
2022-11-18T10:55:25.934Z,27.70
2022-11-18T10:57:59.546Z,18.53
2022-11-18T11:00:37.189Z,15.93
2022-11-18T11:03:28.009Z,22.73
2022-11-18T11:06:24.610Z,17.37
2022-11-18T11:08:55.123Z,23.77
2022-11-18T11:11:26.437Z,39.07
2022-11-18T11:14:01.087Z,13.50
2022-11-18T11:16:31.399Z,31.27
2022-11-18T11:19:04.006Z,25.07
2022-11-18T11:21:33.502Z,17.67
2022-11-18T11:24:02.582Z,18.83
2022-11-18T11:29:48.152Z,19.73
2022-11-18T11:32:27.057Z,17.40
2022-11-18T11:35:03.948Z,16.47
2022-11-18T11:37:51.676Z,16.87
2022-11-18T11:40:26.954Z,19.17
2022-11-18T11:43:05.715Z,18.80
2022-11-18T11:45:41.200Z,16.50
2022-11-18T11:48:28.722Z,19.77
2022-11-18T11:51:05.106Z,17.60
2022-11-18T11:54:06.921Z,18.93
2022-11-18T11:56:40.942Z,17.43
2022-11-18T11:59:18.344Z,17.80
2022-11-18T12:01:58.674Z,25.47
2022-11-18T12:04:47.715Z,17.27
2022-11-18T12:07:20.307Z,16.27
2022-11-18T12:10:20.652Z,13.53
2022-11-18T12:12:55.474Z,21.23
2022-11-18T12:15:42.318Z,19.27
2022-11-18T12:18:16.814Z,17.93
2022-11-18T12:20:47.128Z,14.80
2022-11-18T12:23:19.390Z,26.33
2022-11-18T12:25:56.331Z,30.13
2022-11-18T12:28:28.047Z,23.30
2022-11-18T12:31:27.963Z,21.83
2022-11-18T12:33:58.448Z,27.17
2022-11-18T12:36:28.183Z,19.93
2022-11-18T12:38:57.544Z,17.87
2022-11-18T12:42:14.118Z,26.10
2022-11-18T12:44:44.034Z,21.70
2022-11-18T12:47:12.993Z,22.60
2022-11-18T12:50:16.199Z,27.03
2022-11-18T12:52:52.641Z,24.23
2022-11-18T12:55:31.642Z,24.30
2022-11-18T12:58:01.527Z,23.00
2022-11-18T13:00:52.247Z,28.67
2022-11-18T13:03:26.470Z,23.17
2022-11-18T13:06:02.419Z,20.13
2022-11-18T13:08:31.009Z,16.70
2022-11-18T13:11:25.349Z,20.37
2022-11-18T13:14:15.830Z,16.63
2022-11-18T13:17:02.884Z,19.57
2022-11-18T13:19:30.930Z,19.17
2022-11-18T13:22:18.991Z,20.90
2022-11-18T13:24:49.330Z,15.37
2022-11-18T13:27:32.428Z,22.27
2022-11-18T13:30:11.500Z,17.03
2022-11-18T13:32:44.190Z,19.87
2022-11-18T13:35:16.359Z,18.73
2022-11-18T13:37:53.078Z,19.33
2022-11-18T13:40:24.022Z,19.10
2022-11-18T13:42:52.536Z,18.23
2022-11-18T13:45:27.045Z,25.57
2022-11-18T13:47:59.532Z,16.57
2022-11-18T13:50:34.287Z,20.87
2022-11-18T13:53:15.643Z,15.50
2022-11-18T13:55:48.596Z,11.90
2022-11-18T13:59:02.718Z,20.83
2022-11-18T14:01:29.528Z,28.77
2022-11-18T14:04:00.631Z,24.07
2022-11-18T14:06:30.531Z,25.73
2022-11-18T14:09:07.673Z,19.03
2022-11-18T14:11:38.196Z,23.07
2022-11-18T14:14:06.798Z,21.50
2022-11-18T14:16:38.018Z,18.17
2022-11-18T14:19:07.015Z,24.70
2022-11-18T14:21:38.189Z,20.73
2022-11-18T14:24:07.101Z,19.60
2022-11-18T14:26:37.699Z,25.30
2022-11-18T14:29:21.097Z,20.77
2022-11-18T14:34:44.667Z,48.17
2022-11-18T14:37:15.008Z,25.27
2022-11-18T14:39:43.137Z,25.90
2022-11-18T14:42:14.057Z,18.43
2022-11-18T14:44:42.069Z,16.43
2022-11-18T14:47:20.372Z,18.43
2022-11-18T14:49:49.733Z,17.77
2022-11-18T14:52:18.112Z,16.57
2022-11-18T14:54:46.324Z,22.00
2022-11-18T14:57:17.172Z,14.20
2022-11-18T14:59:45.838Z,21.20
2022-11-18T15:02:16.175Z,21.43
2022-11-18T15:04:44.648Z,22.80
2022-11-18T15:07:23.101Z,19.30
2022-11-18T15:09:52.374Z,22.40
2022-11-18T15:12:20.772Z,18.27
2022-11-18T15:14:48.904Z,14.93
2022-11-18T15:17:20.546Z,21.90
2022-11-18T15:19:48.757Z,27.03
2022-11-18T15:22:18.750Z,19.93
2022-11-18T15:24:46.921Z,16.40
2022-11-18T15:27:15.315Z,16.13
2022-11-18T15:29:43.368Z,19.53
2022-11-18T15:32:11.679Z,25.83
2022-11-18T15:34:39.684Z,24.70
2022-11-18T15:37:08.210Z,16.40
2022-11-18T15:39:37.630Z,20.13
2022-11-18T15:42:06.032Z,22.53
2022-11-18T15:44:34.052Z,25.30
2022-11-18T15:47:02.463Z,29.30
2022-11-18T15:49:30.684Z,19.57
2022-11-18T15:51:59.643Z,21.00
2022-11-18T15:54:27.634Z,24.07
2022-11-18T15:56:57.287Z,21.53
2022-11-18T15:59:25.513Z,27.93
2022-11-18T16:01:57.013Z,31.83
2022-11-18T16:04:25.179Z,29.90
2022-11-18T16:06:54.233Z,26.30
2022-11-18T16:09:22.556Z,28.20
2022-11-18T16:12:08.648Z,24.53
2022-11-18T16:14:39.723Z,31.83
2022-11-18T16:17:08.170Z,23.73
2022-11-18T16:19:36.282Z,21.80
2022-11-18T16:22:04.597Z,21.13
2022-11-18T16:24:32.752Z,27.30
2022-11-18T16:27:04.306Z,23.57
2022-11-18T16:29:32.624Z,23.90
2022-11-18T16:32:02.775Z,25.53
2022-11-18T16:34:30.893Z,29.67
2022-11-18T16:37:01.276Z,26.00
2022-11-18T16:39:29.792Z,40.40
2022-11-18T16:42:06.958Z,30.03
2022-11-18T16:44:36.361Z,36.10
2022-11-18T16:47:12.682Z,29.60
2022-11-18T16:49:43.243Z,21.60
2022-11-18T16:52:11.684Z,32.17
2022-11-18T16:54:44.677Z,31.20
2022-11-18T16:57:14.631Z,24.53
2022-11-18T16:59:42.719Z,32.80
2022-11-18T17:02:14.374Z,26.27
2022-11-18T17:04:42.758Z,27.97
2022-11-18T17:07:11.293Z,22.20
2022-11-18T17:09:39.855Z,25.23
2022-11-18T17:12:08.690Z,23.27
2022-11-18T17:14:38.254Z,32.37
2022-11-18T17:17:07.342Z,31.53
2022-11-18T17:19:36.715Z,31.13
2022-11-18T17:22:05.385Z,58.90
2022-11-18T17:24:33.418Z,67.00
2022-11-18T17:27:01.776Z,75.73
2022-11-18T17:29:30.079Z,69.50
2022-11-18T17:31:58.747Z,69.37
2022-11-18T17:34:26.827Z,62.47
2022-11-18T17:37:00.195Z,77.90
2022-11-18T17:39:31.998Z,73.07
2022-11-18T17:42:15.640Z,70.10
2022-11-18T17:44:43.944Z,77.77
2022-11-18T17:47:12.393Z,68.23
2022-11-18T17:49:40.420Z,69.20
2022-11-18T17:52:10.788Z,77.20
2022-11-18T17:54:38.897Z,57.73
2022-11-18T17:57:07.170Z,66.47
2022-11-18T17:59:35.385Z,61.00
2022-11-18T18:02:03.717Z,49.60
2022-11-18T18:04:32.055Z,54.50
2022-11-18T18:07:00.444Z,40.43
2022-11-18T18:09:31.376Z,33.97
2022-11-18T18:12:20.898Z,36.00
2022-11-18T18:14:48.060Z,36.77
2022-11-18T18:17:17.039Z,26.63
2022-11-18T18:19:45.380Z,35.07
2022-11-18T18:22:13.808Z,31.87
2022-11-18T18:24:43.217Z,44.23
2022-11-18T18:27:11.701Z,34.93
2022-11-18T18:29:39.886Z,25.87
2022-11-18T18:32:08.207Z,31.50
2022-11-18T18:34:36.456Z,27.37
2022-11-18T18:37:05.056Z,34.07
2022-11-18T18:39:33.198Z,25.17
2022-11-18T18:42:03.745Z,31.87
2022-11-18T18:44:45.870Z,40.27
2022-11-18T18:47:14.727Z,38.73
2022-11-18T18:49:42.802Z,32.40
2022-11-18T18:52:11.554Z,29.07
2022-11-18T18:54:39.715Z,36.40
2022-11-18T18:57:09.439Z,30.20
2022-11-18T18:59:37.834Z,23.83
2022-11-18T19:02:06.146Z,30.33
2022-11-18T19:04:34.332Z,28.50
2022-11-18T19:07:02.761Z,23.40
2022-11-18T19:09:30.823Z,26.27
2022-11-18T19:12:16.800Z,26.90
2022-11-18T19:14:46.301Z,26.03
2022-11-18T19:17:15.081Z,26.23
2022-11-18T19:20:01.091Z,30.03
2022-11-18T19:22:31.423Z,33.13
2022-11-18T19:25:00.854Z,33.27
2022-11-18T19:27:30.470Z,22.77
2022-11-18T19:30:00.624Z,24.97
2022-11-18T19:32:29.223Z,28.27
2022-11-18T19:34:57.315Z,23.15
2022-11-18T19:37:26.377Z,26.27
2022-11-18T19:39:54.944Z,29.00
2022-11-18T19:42:23.473Z,17.77
2022-11-18T19:44:52.121Z,24.07
2022-11-18T19:47:21.850Z,22.23
2022-11-18T19:49:50.249Z,15.40
2022-11-18T19:52:18.727Z,16.63
2022-11-18T19:54:47.447Z,19.33
2022-11-18T19:57:16.548Z,17.63
2022-11-18T19:59:46.490Z,18.13
2022-11-18T20:02:15.725Z,19.17
2022-11-18T20:05:06.476Z,23.23
2022-11-18T20:07:36.899Z,16.27
2022-11-18T20:10:09.293Z,22.27
2022-11-18T20:12:38.467Z,18.03
2022-11-18T20:15:17.873Z,20.93
2022-11-18T20:17:47.101Z,21.20
2022-11-18T20:20:18.715Z,17.77
2022-11-18T20:22:47.764Z,25.67
2022-11-18T20:25:16.440Z,20.00
2022-11-18T20:27:45.383Z,21.30
2022-11-18T20:30:15.457Z,22.60
2022-11-18T20:32:46.041Z,20.93
2022-11-18T20:35:16.609Z,19.93
2022-11-18T20:37:46.682Z,24.10
2022-11-18T20:40:16.692Z,21.23
2022-11-18T20:43:03.029Z,15.23
2022-11-18T20:45:32.234Z,18.70
2022-11-18T20:48:01.927Z,15.33
2022-11-18T20:50:38.413Z,17.57
2022-11-18T20:53:10.627Z,16.63
2022-11-18T20:55:39.902Z,22.90
2022-11-18T20:58:08.419Z,23.00
2022-11-18T21:00:37.197Z,26.73
2022-11-18T21:03:06.566Z,20.33
2022-11-18T21:05:40.521Z,17.57
2022-11-18T21:08:10.638Z,19.00
2022-11-18T21:10:40.116Z,22.33
2022-11-18T21:13:26.623Z,22.30
2022-11-18T21:15:56.997Z,18.23
2022-11-18T21:18:29.536Z,24.40
2022-11-18T21:21:16.767Z,28.43
2022-11-18T21:23:46.756Z,25.53
2022-11-18T21:26:15.447Z,17.77
2022-11-18T21:28:44.162Z,19.57
2022-11-18T21:31:12.389Z,23.63
2022-11-18T21:33:40.994Z,26.73
2022-11-18T21:36:10.937Z,27.17
2022-11-18T21:38:39.434Z,28.07
2022-11-18T21:41:08.412Z,25.37
2022-11-18T21:46:28.506Z,27.90
2022-11-18T21:49:00.141Z,30.77
2022-11-18T21:51:31.516Z,29.07
2022-11-18T21:54:00.520Z,34.67
2022-11-18T21:56:31.136Z,22.13
2022-11-18T21:59:01.323Z,28.93
2022-11-18T22:01:31.064Z,31.63
2022-11-18T22:04:00.685Z,25.10
2022-11-18T22:06:34.097Z,26.83
2022-11-18T22:09:06.055Z,28.80
2022-11-18T22:11:34.257Z,22.57
2022-11-18T22:14:04.422Z,27.70
2022-11-18T22:16:36.583Z,25.17
2022-11-18T22:19:08.144Z,31.60
2022-11-18T22:21:37.909Z,30.23
2022-11-18T22:24:06.987Z,24.23
2022-11-18T22:26:35.107Z,28.87
2022-11-18T22:29:03.466Z,23.13
2022-11-18T22:31:31.848Z,28.30
2022-11-18T22:34:00.222Z,34.17
2022-11-18T22:36:28.385Z,27.57
2022-11-18T22:38:57.955Z,27.50
2022-11-18T22:41:45.562Z,30.27
2022-11-18T22:44:15.575Z,29.50
2022-11-18T22:46:45.411Z,28.03
2022-11-18T22:49:14.439Z,25.33
2022-11-18T22:51:42.583Z,28.80
2022-11-18T22:57:00.399Z,30.03
2022-11-18T22:59:28.667Z,31.70
2022-11-18T23:01:56.772Z,22.73
2022-11-18T23:04:25.236Z,27.17
2022-11-18T23:06:53.402Z,29.53
2022-11-18T23:09:23.046Z,25.90
2022-11-18T23:12:11.023Z,29.83
2022-11-18T23:14:39.382Z,26.67
2022-11-18T23:17:07.639Z,18.03
2022-11-18T23:19:36.930Z,31.47
2022-11-18T23:22:04.963Z,24.67
2022-11-18T23:24:34.935Z,23.40
2022-11-18T23:27:03.011Z,33.53
2022-11-18T23:29:31.600Z,30.57
2022-11-18T23:31:59.634Z,22.33
2022-11-18T23:34:28.133Z,25.93
2022-11-18T23:36:56.131Z,23.97
2022-11-18T23:39:24.397Z,19.23
2022-11-18T23:41:53.743Z,27.03
2022-11-18T23:44:42.011Z,21.90
2022-11-18T23:47:10.083Z,25.60
2022-11-18T23:49:38.361Z,19.97
2022-11-18T23:52:06.526Z,21.20
2022-11-18T23:54:34.824Z,30.80
2022-11-18T23:57:05.484Z,16.83
2022-11-18T23:59:34.058Z,19.13
